Time;durP1;ratioP1;P1;durP2;ratioP2;P2;SDS_P1;SDS_P2;PMS_P1;PMS_P2;Temp;Humidity;BMP_temperature;BMP_pressure;BME280_temperature;BME280_humidity;BME280_pressure;Samples;Min_cycle;Max_cycle;Signal;HPM_P1;HPM_P2
2024/01/31 00:00:22;;;;;;;7.50;1.40;;;;;;;;;;4997699;28;92809;-72
2024/01/31 00:02:48;;;;;;;10.35;1.83;;;;;;;;;;5001480;28;94894;-72
2024/01/31 00:05:29;;;;;;;11.65;1.65;;;;;;;;;;5003055;28;92843;-72
2024/01/31 00:07:56;;;;;;;9.93;1.45;;;;;;;;;;4988887;28;93361;-72
2024/01/31 00:10:22;;;;;;;3.90;1.27;;;;;;;;;;4997747;28;93615;-72
2024/01/31 00:12:49;;;;;;;11.35;1.55;;;;;;;;;;5005756;28;92744;-72
2024/01/31 00:15:16;;;;;;;12.73;1.98;;;;;;;;;;4998548;28;93488;-72
2024/01/31 00:17:43;;;;;;;13.85;1.58;;;;;;;;;;5001446;28;93837;-72
2024/01/31 00:20:10;;;;;;;8.18;1.88;;;;;;;;;;5000908;28;91758;-72
2024/01/31 00:22:36;;;;;;;7.75;1.70;;;;;;;;;;4999942;28;92448;-72
2024/01/31 00:25:03;;;;;;;6.43;1.40;;;;;;;;;;4999524;28;93884;-72
2024/01/31 00:27:30;;;;;;;8.75;1.25;;;;;;;;;;4997404;28;95426;-72
2024/01/31 00:29:56;;;;;;;11.63;1.63;;;;;;;;;;5001428;28;93416;-72
2024/01/31 00:32:23;;;;;;;10.43;1.45;;;;;;;;;;5003823;28;92533;-72
2024/01/31 00:34:50;;;;;;;10.65;1.40;;;;;;;;;;5001035;28;93530;-72
2024/01/31 00:37:16;;;;;;;8.05;1.98;;;;;;;;;;4999526;28;93722;-71
2024/01/31 00:39:46;;;;;;;9.45;1.73;;;;;;;;;;5000484;28;92568;-72
2024/01/31 00:42:12;;;;;;;7.78;1.58;;;;;;;;;;4996234;28;92657;-72
2024/01/31 00:44:39;;;;;;;9.30;1.63;;;;;;;;;;5002615;28;92757;-72
2024/01/31 00:47:05;;;;;;;4.60;1.30;;;;;;;;;;5031866;27;92610;-72
2024/01/31 00:49:31;;;;;;;4.38;1.00;;;;;;;;;;5002404;28;94007;-72
2024/01/31 00:51:58;;;;;;;12.63;1.38;;;;;;;;;;5004567;28;95040;-72
2024/01/31 00:54:24;;;;;;;6.88;1.40;;;;;;;;;;5001361;28;95610;-72
2024/01/31 00:56:51;;;;;;;12.32;1.95;;;;;;;;;;5000129;28;93771;-72
2024/01/31 00:59:18;;;;;;;11.52;1.35;;;;;;;;;;5001825;28;92553;-72
2024/01/31 01:01:44;;;;;;;11.52;2.13;;;;;;;;;;4999284;28;94238;-72
2024/01/31 01:04:11;;;;;;;7.05;1.30;;;;;;;;;;5003521;28;93819;-72
2024/01/31 01:06:40;;;;;;;9.48;1.50;;;;;;;;;;4999834;28;92578;-72
2024/01/31 01:09:07;;;;;;;6.45;1.48;;;;;;;;;;5004530;28;93088;-72
2024/01/31 01:11:34;;;;;;;10.77;1.30;;;;;;;;;;4996732;28;92509;-72
2024/01/31 01:14:00;;;;;;;8.25;1.70;;;;;;;;;;4995045;28;93139;-72
2024/01/31 01:16:26;;;;;;;6.90;1.65;;;;;;;;;;4999484;28;95798;-72
2024/01/31 01:18:53;;;;;;;15.65;1.70;;;;;;;;;;5002108;28;92787;-72
2024/01/31 01:21:19;;;;;;;9.82;2.22;;;;;;;;;;5001119;28;93099;-72
2024/01/31 01:23:45;;;;;;;5.60;1.85;;;;;;;;;;4996229;28;92569;-72
2024/01/31 01:26:12;;;;;;;5.35;1.45;;;;;;;;;;5001258;28;92647;-72
2024/01/31 01:28:38;;;;;;;16.95;1.70;;;;;;;;;;5000116;28;93073;-72
2024/01/31 01:31:05;;;;;;;6.05;1.58;;;;;;;;;;5002095;28;93405;-72
2024/01/31 01:33:32;;;;;;;5.90;1.52;;;;;;;;;;5003419;28;93116;-72
2024/01/31 01:35:58;;;;;;;11.43;1.80;;;;;;;;;;5000034;28;93385;-71
2024/01/31 01:38:25;;;;;;;7.32;1.70;;;;;;;;;;5001045;28;94687;-72
2024/01/31 01:40:51;;;;;;;10.13;1.60;;;;;;;;;;4994943;28;94966;-72
2024/01/31 01:43:18;;;;;;;5.85;1.60;;;;;;;;;;4998087;28;93584;-72
2024/01/31 01:45:44;;;;;;;10.93;2.10;;;;;;;;;;4994646;28;92663;-72
2024/01/31 01:48:11;;;;;;;10.23;1.52;;;;;;;;;;5004220;28;93431;-72
2024/01/31 01:50:38;;;;;;;9.63;1.95;;;;;;;;;;5000140;28;94979;-72
2024/01/31 01:53:04;;;;;;;10.07;1.52;;;;;;;;;;5036030;27;92425;-73
2024/01/31 01:55:31;;;;;;;9.18;1.35;;;;;;;;;;5003984;28;93228;-72
2024/01/31 01:57:57;;;;;;;13.88;1.90;;;;;;;;;;5003298;28;91813;-72
2024/01/31 02:00:25;;;;;;;13.45;2.03;;;;;;;;;;5007344;28;93898;-72
2024/01/31 02:02:52;;;;;;;8.88;2.20;;;;;;;;;;4999598;28;93412;-72
2024/01/31 02:05:18;;;;;;;15.40;2.17;;;;;;;;;;5005905;28;95338;-72
2024/01/31 02:07:45;;;;;;;4.32;1.30;;;;;;;;;;5001845;28;96881;-72
2024/01/31 02:10:11;;;;;;;11.85;2.15;;;;;;;;;;4988147;28;93703;-72
2024/01/31 02:12:38;;;;;;;9.18;1.48;;;;;;;;;;5005008;28;92442;-72
2024/01/31 02:15:05;;;;;;;8.98;2.10;;;;;;;;;;5004702;28;93192;-72
2024/01/31 02:17:33;;;;;;;9.85;1.80;;;;;;;;;;5005955;28;92440;-72
2024/01/31 02:19:59;;;;;;;10.52;1.67;;;;;;;;;;5003707;28;93489;-72
2024/01/31 02:22:26;;;;;;;11.27;2.10;;;;;;;;;;4998689;28;92801;-72
2024/01/31 02:24:52;;;;;;;16.38;2.35;;;;;;;;;;5006715;28;92627;-72
2024/01/31 02:27:20;;;;;;;6.10;1.80;;;;;;;;;;5001118;28;93120;-72
2024/01/31 02:29:46;;;;;;;11.70;1.73;;;;;;;;;;5002739;28;95837;-72
2024/01/31 02:32:12;;;;;;;8.25;1.73;;;;;;;;;;5004809;28;92523;-72
2024/01/31 02:34:39;;;;;;;9.15;1.20;;;;;;;;;;5008995;28;93385;-72
2024/01/31 02:37:06;;;;;;;8.98;1.80;;;;;;;;;;5005304;28;92460;-72
2024/01/31 02:39:33;;;;;;;6.80;1.25;;;;;;;;;;4999496;28;93106;-72
2024/01/31 02:42:00;;;;;;;9.25;1.65;;;;;;;;;;5003121;28;93456;-72
2024/01/31 02:44:26;;;;;;;16.67;2.08;;;;;;;;;;5007799;28;92428;-72
2024/01/31 02:46:52;;;;;;;11.18;1.67;;;;;;;;;;5003718;28;93581;-72
2024/01/31 02:49:19;;;;;;;11.93;1.73;;;;;;;;;;5005273;28;93409;-72
2024/01/31 02:51:46;;;;;;;8.60;1.60;;;;;;;;;;5005024;28;92593;-72
2024/01/31 02:54:12;;;;;;;13.40;1.70;;;;;;;;;;5003378;28;94782;-72
2024/01/31 02:56:38;;;;;;;11.23;2.03;;;;;;;;;;5001989;28;93424;-72
2024/01/31 02:59:05;;;;;;;8.93;1.65;;;;;;;;;;4998809;28;93772;-72
2024/01/31 03:01:31;;;;;;;8.43;1.85;;;;;;;;;;5006729;28;93415;-72
2024/01/31 03:03:58;;;;;;;9.57;1.92;;;;;;;;;;5004409;28;92471;-72
2024/01/31 03:06:24;;;;;;;7.43;1.30;;;;;;;;;;5001621;28;93226;-72
2024/01/31 03:08:51;;;;;;;4.55;1.45;;;;;;;;;;5002618;28;93447;-72
2024/01/31 03:11:17;;;;;;;14.52;1.92;;;;;;;;;;5001380;28;92115;-72
2024/01/31 03:13:44;;;;;;;12.43;1.60;;;;;;;;;;5000813;28;92575;-71
2024/01/31 03:16:10;;;;;;;9.98;1.67;;;;;;;;;;5003498;28;93486;-71
2024/01/31 03:18:37;;;;;;;14.77;2.22;;;;;;;;;;5003192;28;94879;-72
2024/01/31 03:21:03;;;;;;;4.05;1.23;;;;;;;;;;5001581;28;93503;-72
2024/01/31 03:23:30;;;;;;;10.63;2.53;;;;;;;;;;5002307;28;92677;-72
2024/01/31 03:25:56;;;;;;;11.63;2.50;;;;;;;;;;4999310;28;93585;-72
2024/01/31 03:28:23;;;;;;;8.93;1.80;;;;;;;;;;5006473;28;93400;-72
2024/01/31 03:30:50;;;;;;;10.38;2.17;;;;;;;;;;5001245;28;92489;-72
2024/01/31 03:33:16;;;;;;;8.88;1.58;;;;;;;;;;5000925;28;95417;-72
2024/01/31 03:35:43;;;;;;;8.35;1.85;;;;;;;;;;5006850;28;93343;-72
2024/01/31 03:38:09;;;;;;;10.43;2.45;;;;;;;;;;4998326;28;92519;-72
2024/01/31 03:40:36;;;;;;;11.82;1.90;;;;;;;;;;5003623;28;93532;-72
2024/01/31 03:43:03;;;;;;;14.82;2.35;;;;;;;;;;4999012;28;94822;-72
2024/01/31 03:45:29;;;;;;;13.10;2.28;;;;;;;;;;4998161;28;95609;-72
2024/01/31 03:47:56;;;;;;;8.32;1.83;;;;;;;;;;5002676;28;95463;-72
2024/01/31 03:50:22;;;;;;;10.43;1.95;;;;;;;;;;4997355;28;94678;-72
2024/01/31 03:52:48;;;;;;;15.82;2.30;;;;;;;;;;5002109;28;93120;-72
2024/01/31 03:55:15;;;;;;;9.40;2.20;;;;;;;;;;4998524;28;93457;-72
2024/01/31 03:57:41;;;;;;;15.18;2.00;;;;;;;;;;5002561;28;92528;-72
2024/01/31 04:00:09;;;;;;;4.50;2.10;;;;;;;;;;5007320;28;93812;-72
2024/01/31 04:02:37;;;;;;;9.73;2.10;;;;;;;;;;4994330;28;92723;-72
2024/01/31 04:05:03;;;;;;;5.85;1.80;;;;;;;;;;5006037;28;93214;-72
2024/01/31 04:07:30;;;;;;;5.15;2.10;;;;;;;;;;4996245;28;96162;-72
2024/01/31 04:09:56;;;;;;;5.00;1.90;;;;;;;;;;5000718;28;92663;-72
2024/01/31 04:12:23;;;;;;;8.45;2.20;;;;;;;;;;5003768;28;93411;-72
2024/01/31 04:14:49;;;;;;;14.02;2.85;;;;;;;;;;4999326;28;93774;-72
2024/01/31 04:17:16;;;;;;;7.65;2.15;;;;;;;;;;4999246;28;92559;-72
2024/01/31 04:19:47;;;;;;;14.38;2.70;;;;;;;;;;5003695;28;94526;-72
2024/01/31 04:22:14;;;;;;;8.70;2.40;;;;;;;;;;5006794;28;93424;-72
2024/01/31 04:24:40;;;;;;;7.55;1.85;;;;;;;;;;5000147;28;93441;-72
2024/01/31 04:27:06;;;;;;;12.20;1.83;;;;;;;;;;5000410;28;92440;-72
2024/01/31 04:29:33;;;;;;;9.55;2.47;;;;;;;;;;5001018;28;92428;-72
2024/01/31 04:31:59;;;;;;;6.53;2.25;;;;;;;;;;4994480;28;94907;-72
2024/01/31 04:34:26;;;;;;;9.57;2.70;;;;;;;;;;5000671;28;93422;-72
2024/01/31 04:36:53;;;;;;;8.00;2.20;;;;;;;;;;5000547;28;92446;-72
2024/01/31 04:39:19;;;;;;;7.68;2.15;;;;;;;;;;5000672;28;92704;-72
2024/01/31 04:41:47;;;;;;;6.95;2.17;;;;;;;;;;4996443;28;93269;-72
2024/01/31 04:44:13;;;;;;;10.23;2.45;;;;;;;;;;4999072;28;92542;-72
2024/01/31 04:46:39;;;;;;;4.03;1.95;;;;;;;;;;4997030;28;96931;-72
2024/01/31 04:49:06;;;;;;;8.52;2.05;;;;;;;;;;5002802;28;91788;-72
2024/01/31 04:51:33;;;;;;;7.68;1.83;;;;;;;;;;4998861;28;92509;-71
2024/01/31 04:53:59;;;;;;;8.82;1.70;;;;;;;;;;4999139;28;94477;-72
2024/01/31 04:56:25;;;;;;;5.13;1.63;;;;;;;;;;4996859;28;95766;-72
2024/01/31 04:58:52;;;;;;;9.55;2.58;;;;;;;;;;5001291;28;95991;-72
2024/01/31 05:01:18;;;;;;;7.10;2.05;;;;;;;;;;4998102;28;93366;-71
2024/01/31 05:03:44;;;;;;;5.97;1.95;;;;;;;;;;5002025;28;92639;-72
2024/01/31 05:06:11;;;;;;;10.45;2.47;;;;;;;;;;5001735;28;93594;-71
2024/01/31 05:08:37;;;;;;;16.77;5.82;;;;;;;;;;4997982;28;92499;-72
2024/01/31 05:11:04;;;;;;;11.20;3.25;;;;;;;;;;5002917;28;93651;-72
2024/01/31 05:13:30;;;;;;;10.13;2.47;;;;;;;;;;4996280;28;92997;-72
2024/01/31 05:15:56;;;;;;;8.93;2.15;;;;;;;;;;4999025;28;92515;-72
2024/01/31 05:18:23;;;;;;;7.78;2.42;;;;;;;;;;4996773;28;95588;-72
2024/01/31 05:20:49;;;;;;;7.95;2.10;;;;;;;;;;4998549;28;95879;-72
2024/01/31 05:23:16;;;;;;;3.80;2.13;;;;;;;;;;4997814;28;92604;-72
2024/01/31 05:25:42;;;;;;;9.77;2.90;;;;;;;;;;5000565;28;93381;-72
2024/01/31 05:28:09;;;;;;;10.23;2.35;;;;;;;;;;5002378;28;93345;-72
2024/01/31 05:30:35;;;;;;;6.72;2.22;;;;;;;;;;4996836;28;93651;-72
2024/01/31 05:33:02;;;;;;;4.30;1.90;;;;;;;;;;5032084;27;93510;-72
2024/01/31 05:35:29;;;;;;;5.05;1.98;;;;;;;;;;5000730;28;92595;-72
2024/01/31 05:37:55;;;;;;;6.80;2.47;;;;;;;;;;4998803;28;96434;-72
2024/01/31 05:40:22;;;;;;;9.13;2.25;;;;;;;;;;4998952;28;93529;-72
2024/01/31 05:42:48;;;;;;;7.43;2.00;;;;;;;;;;5006941;28;92497;-72
2024/01/31 05:45:18;;;;;;;3.38;1.83;;;;;;;;;;4993020;28;94857;-72
2024/01/31 05:47:45;;;;;;;8.57;2.22;;;;;;;;;;4998552;28;93431;-72
2024/01/31 05:50:11;;;;;;;3.13;2.42;;;;;;;;;;4991589;28;92520;-72
2024/01/31 05:52:38;;;;;;;5.05;2.03;;;;;;;;;;4997140;28;96187;-72
2024/01/31 05:55:04;;;;;;;5.35;2.13;;;;;;;;;;4993488;28;92478;-72
2024/01/31 05:57:31;;;;;;;9.38;2.38;;;;;;;;;;4998584;28;92889;-72
2024/01/31 05:59:58;;;;;;;4.63;2.42;;;;;;;;;;4996241;28;95672;-72
2024/01/31 06:02:24;;;;;;;3.67;2.47;;;;;;;;;;4996480;28;92125;-72
2024/01/31 06:04:51;;;;;;;3.75;2.08;;;;;;;;;;4998715;28;93581;-72
2024/01/31 06:07:17;;;;;;;3.60;2.30;;;;;;;;;;4999058;28;93424;-72
2024/01/31 06:09:44;;;;;;;8.70;2.60;;;;;;;;;;4999585;28;95105;-72
2024/01/31 06:12:10;;;;;;;6.53;2.65;;;;;;;;;;4996577;28;94012;-71
2024/01/31 06:14:37;;;;;;;4.20;2.10;;;;;;;;;;5003263;28;92350;-72
2024/01/31 06:17:03;;;;;;;8.23;2.63;;;;;;;;;;4997187;28;93173;-72
2024/01/31 06:19:30;;;;;;;8.43;2.45;;;;;;;;;;4994244;28;94668;-72
2024/01/31 06:21:56;;;;;;;4.25;2.17;;;;;;;;;;4996959;28;92544;-72
2024/01/31 06:24:23;;;;;;;6.07;2.72;;;;;;;;;;5003368;28;93214;-72
2024/01/31 06:26:49;;;;;;;4.85;3.17;;;;;;;;;;4997507;28;92666;-72
2024/01/31 06:29:18;;;;;;;5.90;2.70;;;;;;;;;;4997327;28;92592;-72
2024/01/31 06:31:48;;;;;;;6.35;2.70;;;;;;;;;;5000980;28;93102;-72
2024/01/31 06:34:15;;;;;;;14.50;3.38;;;;;;;;;;4994413;28;95247;-72
2024/01/31 06:36:42;;;;;;;7.15;3.60;;;;;;;;;;5004866;28;95787;-72
2024/01/31 06:39:09;;;;;;;5.80;3.80;;;;;;;;;;5002223;28;93547;-72
2024/01/31 06:41:36;;;;;;;10.15;4.32;;;;;;;;;;5002989;28;92554;-72
2024/01/31 06:44:03;;;;;;;11.00;4.85;;;;;;;;;;5004190;28;93535;-72
2024/01/31 06:46:29;;;;;;;11.40;4.53;;;;;;;;;;5002992;28;92491;-72
2024/01/31 06:48:57;;;;;;;13.60;6.97;;;;;;;;;;5003101;28;92423;-72
2024/01/31 06:51:23;;;;;;;13.68;4.97;;;;;;;;;;5000575;28;93425;-71
2024/01/31 06:53:50;;;;;;;8.35;5.07;;;;;;;;;;5008004;28;93342;-72
2024/01/31 06:56:17;;;;;;;14.32;5.78;;;;;;;;;;5003519;28;93139;-71
2024/01/31 06:58:44;;;;;;;19.50;7.85;;;;;;;;;;5001015;28;95883;-71
2024/01/31 07:01:15;;;;;;;13.07;7.68;;;;;;;;;;5003003;28;92490;-72
2024/01/31 07:03:42;;;;;;;17.58;7.63;;;;;;;;;;5001311;28;93306;-70
2024/01/31 07:06:09;;;;;;;9.10;6.18;;;;;;;;;;4999717;28;93449;-72
2024/01/31 07:08:36;;;;;;;22.70;9.25;;;;;;;;;;4993994;28;94138;-72
2024/01/31 07:11:04;;;;;;;22.52;12.82;;;;;;;;;;5000190;28;93782;-73
2024/01/31 07:13:31;;;;;;;26.08;13.50;;;;;;;;;;5002810;28;92520;-73
2024/01/31 07:15:58;;;;;;;20.75;9.85;;;;;;;;;;5006417;28;93182;-73
2024/01/31 07:18:24;;;;;;;21.42;10.57;;;;;;;;;;5002819;28;93778;-73
2024/01/31 07:20:51;;;;;;;25.73;12.80;;;;;;;;;;5001797;28;92658;-73
2024/01/31 07:23:17;;;;;;;16.50;9.80;;;;;;;;;;5002769;28;94930;-72
2024/01/31 07:25:44;;;;;;;13.80;7.53;;;;;;;;;;5001201;28;93431;-73
2024/01/31 07:28:10;;;;;;;13.93;7.45;;;;;;;;;;5002329;28;92475;-72
2024/01/31 07:30:36;;;;;;;11.77;7.15;;;;;;;;;;5004627;28;93722;-72
2024/01/31 07:33:03;;;;;;;14.05;7.72;;;;;;;;;;4999985;28;92650;-72
2024/01/31 07:35:29;;;;;;;10.88;7.38;;;;;;;;;;4996817;28;92468;-73
2024/01/31 07:37:56;;;;;;;17.95;6.93;;;;;;;;;;5004319;28;92622;-73
2024/01/31 07:40:22;;;;;;;9.45;5.93;;;;;;;;;;5003575;28;91809;-72
2024/01/31 07:42:49;;;;;;;7.97;5.03;;;;;;;;;;4998912;28;92576;-72
2024/01/31 07:45:15;;;;;;;9.73;4.95;;;;;;;;;;5001039;28;92555;-72
2024/01/31 07:47:41;;;;;;;9.10;4.78;;;;;;;;;;5000849;28;94988;-72
2024/01/31 07:50:08;;;;;;;9.10;4.88;;;;;;;;;;5005391;28;95856;-73
2024/01/31 07:52:35;;;;;;;7.30;4.90;;;;;;;;;;5000088;28;93502;-72
2024/01/31 07:55:01;;;;;;;4.85;4.35;;;;;;;;;;5003153;28;92545;-72
2024/01/31 07:57:28;;;;;;;7.00;4.65;;;;;;;;;;4996380;28;93271;-72
2024/01/31 07:59:54;;;;;;;13.48;5.72;;;;;;;;;;5002777;28;92646;-73
2024/01/31 08:02:20;;;;;;;8.00;5.15;;;;;;;;;;5003186;28;93116;-73
2024/01/31 08:04:47;;;;;;;11.18;5.57;;;;;;;;;;5002378;28;93360;-73
2024/01/31 08:07:14;;;;;;;7.30;5.15;;;;;;;;;;5001678;28;92559;-74
2024/01/31 08:09:40;;;;;;;10.57;6.20;;;;;;;;;;5001920;28;92625;-72
2024/01/31 08:12:07;;;;;;;8.27;5.97;;;;;;;;;;5000487;28;95819;-73
2024/01/31 08:14:34;;;;;;;10.88;5.95;;;;;;;;;;5000712;28;92419;-73
2024/01/31 08:17:00;;;;;;;15.50;6.82;;;;;;;;;;4997277;28;93182;-73
2024/01/31 08:19:27;;;;;;;13.75;7.18;;;;;;;;;;4999861;28;93572;-73
2024/01/31 08:21:53;;;;;;;11.05;6.95;;;;;;;;;;5005516;28;93363;-72
2024/01/31 08:24:20;;;;;;;10.02;6.35;;;;;;;;;;5001351;28;94743;-72
2024/01/31 08:26:46;;;;;;;12.52;6.57;;;;;;;;;;5002176;28;92660;-72
2024/01/31 08:29:12;;;;;;;10.70;7.40;;;;;;;;;;4998971;28;93224;-72
2024/01/31 08:31:51;;;;;;;11.73;7.13;;;;;;;;;;4990078;28;93499;-72
2024/01/31 08:34:18;;;;;;;8.93;7.53;;;;;;;;;;5002215;28;92441;-72
2024/01/31 08:36:45;;;;;;;10.95;7.45;;;;;;;;;;4999497;28;94746;-72
2024/01/31 08:39:12;;;;;;;14.00;8.25;;;;;;;;;;4998123;28;96101;-73
2024/01/31 08:41:38;;;;;;;15.40;7.72;;;;;;;;;;5008053;28;92649;-72
2024/01/31 08:44:04;;;;;;;13.00;7.55;;;;;;;;;;5002394;28;94328;-71
2024/01/31 08:46:31;;;;;;;13.85;7.57;;;;;;;;;;4998686;28;93728;-72
2024/01/31 08:49:04;;;;;;;15.73;7.60;;;;;;;;;;4996516;28;93338;-73
2024/01/31 08:51:32;;;;;;;13.75;7.15;;;;;;;;;;4997418;28;93934;-73
2024/01/31 08:53:59;;;;;;;14.02;6.75;;;;;;;;;;4996859;28;91815;-72
2024/01/31 08:56:25;;;;;;;9.77;6.90;;;;;;;;;;4991743;28;92745;-72
2024/01/31 08:58:52;;;;;;;13.82;6.97;;;;;;;;;;4996001;28;93692;-72
2024/01/31 09:01:18;;;;;;;11.68;6.80;;;;;;;;;;4997001;28;94871;-72
2024/01/31 09:03:44;;;;;;;13.20;6.72;;;;;;;;;;5002353;28;95529;-72
2024/01/31 09:06:11;;;;;;;9.25;5.72;;;;;;;;;;5002274;28;92564;-72
2024/01/31 09:08:37;;;;;;;7.20;5.88;;;;;;;;;;4994997;28;93156;-72
2024/01/31 09:11:04;;;;;;;10.88;6.40;;;;;;;;;;4999816;28;93403;-72
2024/01/31 09:13:30;;;;;;;8.45;5.60;;;;;;;;;;5005073;28;92414;-73
2024/01/31 09:15:57;;;;;;;8.32;6.07;;;;;;;;;;4999353;28;93485;-73
2024/01/31 09:18:23;;;;;;;6.75;6.05;;;;;;;;;;4994304;28;94177;-72
2024/01/31 09:20:50;;;;;;;9.38;5.88;;;;;;;;;;5000296;28;92812;-73
2024/01/31 09:23:16;;;;;;;9.10;5.30;;;;;;;;;;4996614;28;93155;-72
2024/01/31 09:25:43;;;;;;;9.50;5.80;;;;;;;;;;5001133;28;95796;-72
2024/01/31 09:28:09;;;;;;;6.07;4.90;;;;;;;;;;4999170;28;95807;-72
2024/01/31 09:30:36;;;;;;;6.65;4.53;;;;;;;;;;5000274;28;93801;-72
2024/01/31 09:33:02;;;;;;;6.60;4.72;;;;;;;;;;5000962;28;92441;-73
2024/01/31 09:35:29;;;;;;;6.45;4.82;;;;;;;;;;4994909;28;93175;-73
2024/01/31 09:37:56;;;;;;;9.00;5.40;;;;;;;;;;5002083;28;93618;-71
2024/01/31 09:40:23;;;;;;;8.05;5.25;;;;;;;;;;4991499;28;92473;-75
2024/01/31 09:42:51;;;;;;;8.32;4.97;;;;;;;;;;4997399;28;93088;-77
2024/01/31 09:45:17;;;;;;;9.05;4.63;;;;;;;;;;5003726;28;93943;-74
2024/01/31 09:47:45;;;;;;;7.68;4.55;;;;;;;;;;5003062;28;92690;-71
2024/01/31 09:50:12;;;;;;;7.05;4.78;;;;;;;;;;4993742;28;96538;-71
2024/01/31 09:52:39;;;;;;;7.93;5.00;;;;;;;;;;5000754;28;92538;-71
2024/01/31 09:55:10;;;;;;;9.18;4.68;;;;;;;;;;4996751;28;93468;-71
2024/01/31 09:57:39;;;;;;;10.13;5.50;;;;;;;;;;5000671;28;93443;-71
2024/01/31 10:00:06;;;;;;;8.25;4.88;;;;;;;;;;5003253;28;92854;-71
2024/01/31 10:02:33;;;;;;;7.47;5.00;;;;;;;;;;4997447;28;95519;-71
2024/01/31 10:05:00;;;;;;;9.77;4.97;;;;;;;;;;4998067;28;93631;-71
2024/01/31 10:07:33;;;;;;;7.93;4.90;;;;;;;;;;5004326;28;91871;-72
2024/01/31 10:09:59;;;;;;;9.00;5.22;;;;;;;;;;5007909;28;92444;-71
2024/01/31 10:12:26;;;;;;;6.78;4.70;;;;;;;;;;4999817;28;92836;-71
2024/01/31 10:14:52;;;;;;;14.90;5.53;;;;;;;;;;4993764;28;94982;-72
2024/01/31 10:17:20;;;;;;;10.98;5.72;;;;;;;;;;5010597;28;93396;-71
2024/01/31 10:19:46;;;;;;;10.05;5.55;;;;;;;;;;5000472;28;92421;-71
2024/01/31 10:22:13;;;;;;;8.20;5.30;;;;;;;;;;5003691;28;92949;-71
2024/01/31 10:24:40;;;;;;;14.65;5.93;;;;;;;;;;4997505;28;94511;-72
2024/01/31 10:27:07;;;;;;;8.95;5.90;;;;;;;;;;5006078;28;92509;-70
2024/01/31 10:29:34;;;;;;;12.57;6.03;;;;;;;;;;5005042;28;93314;-70
2024/01/31 10:32:03;;;;;;;13.40;6.40;;;;;;;;;;4994406;28;91720;-70
2024/01/31 10:34:29;;;;;;;14.30;6.65;;;;;;;;;;4997827;28;92630;-70
2024/01/31 10:37:14;;;;;;;23.58;7.78;;;;;;;;;;5000143;28;93624;-71
2024/01/31 10:40:00;;;;;;;17.98;8.35;;;;;;;;;;4996315;28;94958;-71
2024/01/31 10:42:27;;;;;;;26.85;8.95;;;;;;;;;;5001389;28;95897;-71
2024/01/31 10:44:54;;;;;;;17.30;8.70;;;;;;;;;;5001602;28;93739;-72
2024/01/31 10:47:20;;;;;;;22.88;9.30;;;;;;;;;;5001357;28;92464;-72
2024/01/31 10:49:47;;;;;;;16.50;9.27;;;;;;;;;;5000496;28;98812;-71
2024/01/31 10:52:14;;;;;;;19.35;9.57;;;;;;;;;;5005958;28;93850;-71
2024/01/31 10:54:44;;;;;;;31.70;10.70;;;;;;;;;;5002810;28;93161;-71
2024/01/31 10:57:11;;;;;;;22.30;11.00;;;;;;;;;;5004751;28;92707;-71
2024/01/31 10:59:37;;;;;;;35.35;12.13;;;;;;;;;;4996778;28;93133;-71
2024/01/31 11:02:04;;;;;;;24.27;10.70;;;;;;;;;;4999971;28;93452;-71
2024/01/31 11:04:37;;;;;;;24.00;11.50;;;;;;;;;;5000953;28;97534;-71
2024/01/31 11:07:04;;;;;;;25.90;11.10;;;;;;;;;;5004351;28;92353;-70
2024/01/31 11:09:31;;;;;;;22.52;11.07;;;;;;;;;;5003323;28;93212;-72
2024/01/31 11:12:00;;;;;;;28.73;12.45;;;;;;;;;;5001059;28;93432;-71
2024/01/31 11:14:30;;;;;;;24.20;12.57;;;;;;;;;;5001901;28;92691;-71
2024/01/31 11:17:06;;;;;;;26.07;11.43;;;;;;;;;;4999547;28;94120;-71
2024/01/31 11:19:59;;;;;;;25.92;12.07;;;;;;;;;;5001024;28;92781;-71
2024/01/31 11:22:26;;;;;;;24.48;12.15;;;;;;;;;;4987504;28;93424;-71
2024/01/31 11:24:53;;;;;;;31.45;13.55;;;;;;;;;;5000581;28;93486;-71
2024/01/31 11:27:20;;;;;;;24.73;12.98;;;;;;;;;;4991857;28;92545;-70
2024/01/31 11:29:50;;;;;;;27.50;12.65;;;;;;;;;;5003934;28;95061;-70
2024/01/31 11:32:23;;;;;;;27.02;13.27;;;;;;;;;;4997116;28;93768;-70
2024/01/31 11:34:57;;;;;;;31.05;14.10;;;;;;;;;;4999089;28;92542;-71
2024/01/31 11:37:24;;;;;;;29.70;14.77;;;;;;;;;;4994659;28;93219;-71
2024/01/31 11:39:50;;;;;;;31.30;14.02;;;;;;;;;;4998084;28;93324;-71
2024/01/31 11:42:17;;;;;;;25.98;13.68;;;;;;;;;;5001932;28;93475;-70
2024/01/31 11:44:43;;;;;;;27.38;14.35;;;;;;;;;;5000197;28;93797;-72
2024/01/31 11:47:10;;;;;;;29.25;15.23;;;;;;;;;;5001739;28;92042;-72
2024/01/31 11:49:36;;;;;;;30.30;14.43;;;;;;;;;;5003124;28;92716;-70
2024/01/31 11:52:03;;;;;;;34.83;15.48;;;;;;;;;;5001772;28;93383;-71
2024/01/31 11:54:30;;;;;;;32.47;15.43;;;;;;;;;;5002514;28;95000;-70
2024/01/31 11:56:57;;;;;;;26.15;15.23;;;;;;;;;;4998915;28;96951;-70
2024/01/31 11:59:23;;;;;;;30.70;15.60;;;;;;;;;;5004231;28;93538;-71
2024/01/31 12:01:50;;;;;;;29.13;15.07;;;;;;;;;;4998877;28;94337;-72
2024/01/31 12:04:16;;;;;;;33.08;15.10;;;;;;;;;;5004709;28;93748;-72
2024/01/31 12:06:43;;;;;;;30.50;15.25;;;;;;;;;;4998129;28;92518;-71
2024/01/31 12:09:09;;;;;;;31.20;14.60;;;;;;;;;;5001638;28;93278;-73
2024/01/31 12:11:36;;;;;;;26.50;14.68;;;;;;;;;;5000603;28;92685;-72
2024/01/31 12:14:02;;;;;;;28.70;14.13;;;;;;;;;;5001139;28;92747;-73
2024/01/31 12:16:38;;;;;;;22.38;13.32;;;;;;;;;;4996256;28;93141;-71
2024/01/31 12:19:05;;;;;;;32.65;14.25;;;;;;;;;;4998560;28;97548;-71
2024/01/31 12:21:42;;;;;;;29.48;14.07;;;;;;;;;;5001551;28;92435;-71
2024/01/31 12:24:08;;;;;;;20.30;11.88;;;;;;;;;;5002160;28;93699;-72
2024/01/31 12:26:37;;;;;;;24.33;12.57;;;;;;;;;;4998229;28;92493;-70
2024/01/31 12:29:03;;;;;;;22.20;11.93;;;;;;;;;;5002620;28;94025;-70
2024/01/31 12:31:30;;;;;;;23.05;12.63;;;;;;;;;;5003596;28;94644;-70
2024/01/31 12:33:56;;;;;;;23.90;11.20;;;;;;;;;;5001062;28;92455;-70
2024/01/31 12:36:23;;;;;;;22.25;10.75;;;;;;;;;;5004882;28;93299;-70
2024/01/31 12:38:49;;;;;;;18.75;10.85;;;;;;;;;;5001078;28;93791;-70
2024/01/31 12:41:17;;;;;;;18.98;11.80;;;;;;;;;;5003274;28;92957;-70
2024/01/31 12:43:44;;;;;;;19.90;10.75;;;;;;;;;;4996119;28;96128;-70
2024/01/31 12:46:11;;;;;;;15.82;10.88;;;;;;;;;;5006123;28;92467;-71
2024/01/31 12:48:38;;;;;;;17.73;10.55;;;;;;;;;;4994968;28;92954;-71
2024/01/31 12:51:04;;;;;;;21.30;10.55;;;;;;;;;;4996913;28;93448;-70
2024/01/31 12:53:31;;;;;;;26.77;10.77;;;;;;;;;;4991856;28;92610;-70
2024/01/31 12:55:57;;;;;;;15.63;10.35;;;;;;;;;;4997356;28;92530;-70
2024/01/31 12:58:24;;;;;;;20.00;10.48;;;;;;;;;;4996017;28;93400;-71
2024/01/31 13:00:50;;;;;;;16.38;10.05;;;;;;;;;;5000657;28;91805;-70
2024/01/31 13:03:17;;;;;;;17.77;10.20;;;;;;;;;;5006564;28;92560;-70
2024/01/31 13:05:44;;;;;;;17.20;9.82;;;;;;;;;;5000001;28;92628;-71
2024/01/31 13:08:11;;;;;;;15.32;9.38;;;;;;;;;;4997384;28;94981;-70
2024/01/31 13:10:37;;;;;;;15.73;10.10;;;;;;;;;;5001626;28;93500;-70
2024/01/31 13:13:04;;;;;;;14.60;8.50;;;;;;;;;;5000647;28;93041;-70
2024/01/31 13:15:30;;;;;;;17.05;8.73;;;;;;;;;;5000296;28;93528;-69
2024/01/31 13:17:57;;;;;;;11.73;8.38;;;;;;;;;;4998241;28;93793;-70
2024/01/31 13:20:23;;;;;;;11.00;7.38;;;;;;;;;;4999047;28;92692;-72
2024/01/31 13:22:50;;;;;;;11.15;7.70;;;;;;;;;;5000135;28;93332;-72
2024/01/31 13:25:16;;;;;;;11.52;6.95;;;;;;;;;;4994237;28;92751;-71
2024/01/31 13:27:43;;;;;;;8.00;4.88;;;;;;;;;;5001016;28;92529;-71
2024/01/31 13:30:10;;;;;;;7.65;5.03;;;;;;;;;;5000161;28;93369;-72
2024/01/31 13:32:38;;;;;;;9.50;5.50;;;;;;;;;;4995422;28;96565;-71
2024/01/31 13:35:05;;;;;;;8.68;5.18;;;;;;;;;;4997045;28;95694;-71
2024/01/31 13:37:31;;;;;;;7.40;5.15;;;;;;;;;;4997567;28;93626;-73
2024/01/31 13:39:58;;;;;;;6.63;4.93;;;;;;;;;;5000861;28;94330;-74
2024/01/31 13:42:24;;;;;;;8.13;4.63;;;;;;;;;;5000732;28;92989;-72
2024/01/31 13:44:50;;;;;;;6.93;4.85;;;;;;;;;;5000353;28;93390;-73
2024/01/31 13:47:17;;;;;;;9.43;5.00;;;;;;;;;;5004281;28;92524;-73
2024/01/31 13:49:43;;;;;;;6.70;4.82;;;;;;;;;;4992781;28;92681;-72
2024/01/31 13:52:10;;;;;;;12.38;5.20;;;;;;;;;;5000988;28;92379;-71
2024/01/31 13:54:36;;;;;;;9.55;4.80;;;;;;;;;;4996823;28;93175;-71
2024/01/31 13:57:03;;;;;;;5.32;3.80;;;;;;;;;;4994994;28;96180;-72
2024/01/31 13:59:29;;;;;;;7.70;4.30;;;;;;;;;;4996809;28;93143;-72
2024/01/31 14:01:56;;;;;;;9.63;4.50;;;;;;;;;;4984894;28;93554;-70
2024/01/31 14:04:26;;;;;;;6.82;4.40;;;;;;;;;;4993383;28;94542;-71
2024/01/31 14:06:52;;;;;;;11.13;4.78;;;;;;;;;;5000725;28;92645;-73
2024/01/31 14:09:21;;;;;;;13.05;4.50;;;;;;;;;;5001867;28;92761;-73
2024/01/31 14:11:47;;;;;;;6.40;3.90;;;;;;;;;;5001748;28;92504;-74
2024/01/31 14:14:14;;;;;;;6.45;3.85;;;;;;;;;;4999974;28;93147;-73
2024/01/31 14:16:41;;;;;;;8.00;4.18;;;;;;;;;;4995505;28;93636;-73
2024/01/31 14:19:07;;;;;;;10.50;3.78;;;;;;;;;;4999043;28;92781;-73
2024/01/31 14:21:34;;;;;;;9.07;3.70;;;;;;;;;;4994298;28;95062;-72
2024/01/31 14:24:00;;;;;;;7.70;3.85;;;;;;;;;;4998643;28;93460;-73
2024/01/31 14:26:40;;;;;;;8.70;3.83;;;;;;;;;;4998241;28;92594;-73
2024/01/31 14:29:07;;;;;;;7.70;3.45;;;;;;;;;;4997329;28;93841;-72
2024/01/31 14:31:34;;;;;;;6.78;3.55;;;;;;;;;;4998498;28;92428;-73